sensor_id;sensor_type;location;lat;lon;timestamp;temperature;humidity
40556;DHT22;26250;45.422;11.100;2023-02-08T10:54:52;6.50;51.10
40556;DHT22;26250;45.422;11.100;2023-02-08T10:57:23;6.60;50.40
40556;DHT22;26250;45.422;11.100;2023-02-08T11:00:00;6.60;49.80
40556;DHT22;26250;45.422;11.100;2023-02-08T11:02:31;6.60;50.00
40556;DHT22;26250;45.422;11.100;2023-02-08T11:07:34;6.80;50.00
40556;DHT22;26250;45.422;11.100;2023-02-08T11:13:16;6.90;50.60
40556;DHT22;26250;45.422;11.100;2023-02-08T11:15:55;6.80;51.00
40556;DHT22;26250;45.422;11.100;2023-02-08T11:18:33;6.80;50.80
40556;DHT22;26250;45.422;11.100;2023-02-08T11:21:06;6.90;50.90
40556;DHT22;26250;45.422;11.100;2023-02-08T11:23:39;7.10;51.20
40556;DHT22;26250;45.422;11.100;2023-02-08T11:31:37;7.20;51.20
40556;DHT22;26250;45.422;11.100;2023-02-08T11:34:23;7.20;50.90
40556;DHT22;26250;45.422;11.100;2023-02-08T11:36:51;7.20;50.50
40556;DHT22;26250;45.422;11.100;2023-02-08T11:39:24;7.20;50.20
40556;DHT22;26250;45.422;11.100;2023-02-08T11:41:57;7.30;50.70
40556;DHT22;26250;45.422;11.100;2023-02-08T11:44:36;7.30;50.10
40556;DHT22;26250;45.422;11.100;2023-02-08T11:47:08;7.30;50.40
40556;DHT22;26250;45.422;11.100;2023-02-08T11:49:38;7.40;50.10
40556;DHT22;26250;45.422;11.100;2023-02-08T11:52:29;7.30;51.10
40556;DHT22;26250;45.422;11.100;2023-02-08T11:55:22;7.40;50.60
40556;DHT22;26250;45.422;11.100;2023-02-08T11:57:57;7.40;50.60
40556;DHT22;26250;45.422;11.100;2023-02-08T12:00:31;7.40;51.00
40556;DHT22;26250;45.422;11.100;2023-02-08T12:03:19;7.40;50.30
40556;DHT22;26250;45.422;11.100;2023-02-08T12:06:17;7.40;50.50
40556;DHT22;26250;45.422;11.100;2023-02-08T12:11:47;7.40;50.90
40556;DHT22;26250;45.422;11.100;2023-02-08T12:23:19;7.60;52.50
40556;DHT22;26250;45.422;11.100;2023-02-08T12:28:45;7.60;51.70
40556;DHT22;26250;45.422;11.100;2023-02-08T12:31:37;7.60;52.10
40556;DHT22;26250;45.422;11.100;2023-02-08T12:36:59;7.60;52.10
40556;DHT22;26250;45.422;11.100;2023-02-08T12:48:52;7.70;52.80
40556;DHT22;26250;45.422;11.100;2023-02-08T12:52:18;7.70;53.10
40556;DHT22;26250;45.422;11.100;2023-02-08T12:54:56;7.70;52.80
40556;DHT22;26250;45.422;11.100;2023-02-08T12:57:25;7.70;53.20
40556;DHT22;26250;45.422;11.100;2023-02-08T13:00:33;7.70;52.90
40556;DHT22;26250;45.422;11.100;2023-02-08T13:05:57;7.70;52.90
40556;DHT22;26250;45.422;11.100;2023-02-08T13:08:49;7.80;52.60
40556;DHT22;26250;45.422;11.100;2023-02-08T13:14:22;7.80;52.50
40556;DHT22;26250;45.422;11.100;2023-02-08T13:16:54;7.80;53.30
40556;DHT22;26250;45.422;11.100;2023-02-08T13:22:20;7.90;52.70
40556;DHT22;26250;45.422;11.100;2023-02-08T13:24:48;7.90;52.50
40556;DHT22;26250;45.422;11.100;2023-02-08T13:27:32;7.90;52.30
40556;DHT22;26250;45.422;11.100;2023-02-08T13:30:03;8.00;50.90
40556;DHT22;26250;45.422;11.100;2023-02-08T13:32:39;8.00;49.80
40556;DHT22;26250;45.422;11.100;2023-02-08T13:35:16;8.00;50.00
40556;DHT22;26250;45.422;11.100;2023-02-08T13:38:34;7.90;49.80
40556;DHT22;26250;45.422;11.100;2023-02-08T13:40:36;8.00;49.90
40556;DHT22;26250;45.422;11.100;2023-02-08T13:43:18;8.00;49.20
40556;DHT22;26250;45.422;11.100;2023-02-08T13:46:02;8.00;49.60
40556;DHT22;26250;45.422;11.100;2023-02-08T13:48:44;8.00;50.10
40556;DHT22;26250;45.422;11.100;2023-02-08T13:54:09;7.90;50.10
40556;DHT22;26250;45.422;11.100;2023-02-08T14:04:42;8.00;51.60
40556;DHT22;26250;45.422;11.100;2023-02-08T14:17:48;7.80;52.60
40556;DHT22;26250;45.422;11.100;2023-02-08T14:22:57;7.90;52.30
40556;DHT22;26250;45.422;11.100;2023-02-08T14:25:42;7.90;52.60
40556;DHT22;26250;45.422;11.100;2023-02-08T14:28:33;7.90;52.70
40556;DHT22;26250;45.422;11.100;2023-02-08T14:31:04;7.90;53.30
40556;DHT22;26250;45.422;11.100;2023-02-08T14:33:49;7.90;52.80
40556;DHT22;26250;45.422;11.100;2023-02-08T14:36:28;7.90;52.90
40556;DHT22;26250;45.422;11.100;2023-02-08T14:39:28;8.00;53.40
40556;DHT22;26250;45.422;11.100;2023-02-08T14:41:56;7.90;52.80
40556;DHT22;26250;45.422;11.100;2023-02-08T14:50:15;7.90;52.00
40556;DHT22;26250;45.422;11.100;2023-02-08T14:53:13;7.90;52.40
40556;DHT22;26250;45.422;11.100;2023-02-08T14:55:49;7.90;52.30
40556;DHT22;26250;45.422;11.100;2023-02-08T14:58:38;7.80;52.60
40556;DHT22;26250;45.422;11.100;2023-02-08T15:01:17;7.90;53.80
40556;DHT22;26250;45.422;11.100;2023-02-08T15:03:47;7.90;53.00
40556;DHT22;26250;45.422;11.100;2023-02-08T15:09:00;7.80;53.00
40556;DHT22;26250;45.422;11.100;2023-02-08T15:11:30;7.80;53.40
40556;DHT22;26250;45.422;11.100;2023-02-08T15:13:59;7.80;53.30
40556;DHT22;26250;45.422;11.100;2023-02-08T15:16:39;7.80;52.80
40556;DHT22;26250;45.422;11.100;2023-02-08T15:19:07;7.90;53.90
40556;DHT22;26250;45.422;11.100;2023-02-08T15:21:35;7.80;53.30
40556;DHT22;26250;45.422;11.100;2023-02-08T15:24:21;7.80;55.10
40556;DHT22;26250;45.422;11.100;2023-02-08T15:26:52;7.80;52.50
40556;DHT22;26250;45.422;11.100;2023-02-08T15:29:28;7.70;53.10
40556;DHT22;26250;45.422;11.100;2023-02-08T15:32:15;7.60;54.10
40556;DHT22;26250;45.422;11.100;2023-02-08T15:34:45;7.70;53.10
40556;DHT22;26250;45.422;11.100;2023-02-08T15:37:17;7.60;53.50
40556;DHT22;26250;45.422;11.100;2023-02-08T15:39:48;7.60;53.40
40556;DHT22;26250;45.422;11.100;2023-02-08T15:42:17;7.60;53.50
40556;DHT22;26250;45.422;11.100;2023-02-08T15:44:46;7.60;53.20
40556;DHT22;26250;45.422;11.100;2023-02-08T15:47:22;7.60;53.20
40556;DHT22;26250;45.422;11.100;2023-02-08T15:49:51;7.50;53.60
40556;DHT22;26250;45.422;11.100;2023-02-08T15:52:27;7.50;53.90
40556;DHT22;26250;45.422;11.100;2023-02-08T15:54:55;7.40;54.20
40556;DHT22;26250;45.422;11.100;2023-02-08T16:00:16;7.40;54.20
40556;DHT22;26250;45.422;11.100;2023-02-08T16:02:50;7.50;54.00
40556;DHT22;26250;45.422;11.100;2023-02-08T16:05:21;7.50;54.00
40556;DHT22;26250;45.422;11.100;2023-02-08T16:07:49;7.50;54.10
40556;DHT22;26250;45.422;11.100;2023-02-08T16:10:32;7.50;54.20
40556;DHT22;26250;45.422;11.100;2023-02-08T16:13:22;7.40;54.30
40556;DHT22;26250;45.422;11.100;2023-02-08T16:15:53;7.50;54.40
40556;DHT22;26250;45.422;11.100;2023-02-08T16:18:45;7.50;54.40
40556;DHT22;26250;45.422;11.100;2023-02-08T16:23:56;7.30;54.50
40556;DHT22;26250;45.422;11.100;2023-02-08T16:26:33;7.30;55.20
40556;DHT22;26250;45.422;11.100;2023-02-08T16:29:06;7.20;54.80
40556;DHT22;26250;45.422;11.100;2023-02-08T16:31:43;7.20;54.90
40556;DHT22;26250;45.422;11.100;2023-02-08T16:34:16;7.20;55.10
40556;DHT22;26250;45.422;11.100;2023-02-08T16:36:49;7.20;55.10
40556;DHT22;26250;45.422;11.100;2023-02-08T16:44:32;7.10;55.10
40556;DHT22;26250;45.422;11.100;2023-02-08T16:47:00;7.10;55.20
40556;DHT22;26250;45.422;11.100;2023-02-08T16:49:27;7.00;55.60
40556;DHT22;26250;45.422;11.100;2023-02-08T16:51:56;6.90;55.70
40556;DHT22;26250;45.422;11.100;2023-02-08T16:54:23;7.00;55.70
40556;DHT22;26250;45.422;11.100;2023-02-08T16:56:56;7.00;55.50
40556;DHT22;26250;45.422;11.100;2023-02-08T16:59:26;6.80;55.70
40556;DHT22;26250;45.422;11.100;2023-02-08T17:01:54;7.00;52.70
40556;DHT22;26250;45.422;11.100;2023-02-08T17:04:22;6.80;52.10
40556;DHT22;26250;45.422;11.100;2023-02-08T17:06:52;6.70;52.10
40556;DHT22;26250;45.422;11.100;2023-02-08T17:09:20;6.70;51.80
40556;DHT22;26250;45.422;11.100;2023-02-08T17:11:47;6.80;51.50
40556;DHT22;26250;45.422;11.100;2023-02-08T17:14:13;6.70;51.70
40556;DHT22;26250;45.422;11.100;2023-02-08T17:16:40;6.70;51.70
40556;DHT22;26250;45.422;11.100;2023-02-08T17:19:15;6.70;52.10
40556;DHT22;26250;45.422;11.100;2023-02-08T17:21:45;6.70;52.10
40556;DHT22;26250;45.422;11.100;2023-02-08T17:24:12;6.60;52.30
40556;DHT22;26250;45.422;11.100;2023-02-08T17:26:43;6.60;52.40
40556;DHT22;26250;45.422;11.100;2023-02-08T17:29:11;6.60;52.40
40556;DHT22;26250;45.422;11.100;2023-02-08T17:31:38;6.60;52.60
40556;DHT22;26250;45.422;11.100;2023-02-08T17:34:06;6.60;52.80
40556;DHT22;26250;45.422;11.100;2023-02-08T17:36:35;6.50;53.10
40556;DHT22;26250;45.422;11.100;2023-02-08T17:39:03;6.50;53.10
40556;DHT22;26250;45.422;11.100;2023-02-08T17:41:30;6.40;53.10
40556;DHT22;26250;45.422;11.100;2023-02-08T17:43:57;6.50;53.30
40556;DHT22;26250;45.422;11.100;2023-02-08T17:46:26;6.40;53.50
40556;DHT22;26250;45.422;11.100;2023-02-08T17:48:53;6.50;53.50
40556;DHT22;26250;45.422;11.100;2023-02-08T17:51:22;6.50;53.50
40556;DHT22;26250;45.422;11.100;2023-02-08T17:53:49;6.50;53.60
40556;DHT22;26250;45.422;11.100;2023-02-08T17:56:18;6.50;53.70
40556;DHT22;26250;45.422;11.100;2023-02-08T17:58:49;6.40;54.60
40556;DHT22;26250;45.422;11.100;2023-02-08T18:01:25;6.40;54.40
40556;DHT22;26250;45.422;11.100;2023-02-08T18:03:52;6.40;54.50
40556;DHT22;26250;45.422;11.100;2023-02-08T18:06:19;6.30;54.90
40556;DHT22;26250;45.422;11.100;2023-02-08T18:08:46;6.30;55.20
40556;DHT22;26250;45.422;11.100;2023-02-08T18:11:15;6.20;55.10
40556;DHT22;26250;45.422;11.100;2023-02-08T18:13:46;6.20;55.30
40556;DHT22;26250;45.422;11.100;2023-02-08T18:16:16;6.10;55.50
40556;DHT22;26250;45.422;11.100;2023-02-08T18:18:44;6.20;55.40
40556;DHT22;26250;45.422;11.100;2023-02-08T18:21:16;6.20;55.50
40556;DHT22;26250;45.422;11.100;2023-02-08T18:23:43;6.20;55.00
40556;DHT22;26250;45.422;11.100;2023-02-08T18:26:16;6.10;54.50
40556;DHT22;26250;45.422;11.100;2023-02-08T18:28:43;6.00;54.40
40556;DHT22;26250;45.422;11.100;2023-02-08T18:31:14;6.20;53.70
40556;DHT22;26250;45.422;11.100;2023-02-08T18:33:42;6.10;53.00
40556;DHT22;26250;45.422;11.100;2023-02-08T18:36:10;6.00;52.90
40556;DHT22;26250;45.422;11.100;2023-02-08T18:38:39;6.00;53.00
40556;DHT22;26250;45.422;11.100;2023-02-08T18:41:14;5.90;52.40
40556;DHT22;26250;45.422;11.100;2023-02-08T18:43:42;6.00;52.40
40556;DHT22;26250;45.422;11.100;2023-02-08T18:46:11;6.00;52.00
40556;DHT22;26250;45.422;11.100;2023-02-08T18:48:39;6.00;52.40
40556;DHT22;26250;45.422;11.100;2023-02-08T18:51:08;6.00;52.40
40556;DHT22;26250;45.422;11.100;2023-02-08T18:53:39;6.00;52.50
40556;DHT22;26250;45.422;11.100;2023-02-08T18:56:09;5.90;52.90
40556;DHT22;26250;45.422;11.100;2023-02-08T18:58:40;5.90;53.40
40556;DHT22;26250;45.422;11.100;2023-02-08T19:01:12;5.90;52.80
40556;DHT22;26250;45.422;11.100;2023-02-08T19:03:39;5.80;53.10
40556;DHT22;26250;45.422;11.100;2023-02-08T19:06:09;5.90;53.00
40556;DHT22;26250;45.422;11.100;2023-02-08T19:08:36;6.00;53.40
40556;DHT22;26250;45.422;11.100;2023-02-08T19:11:05;5.90;53.10
40556;DHT22;26250;45.422;11.100;2023-02-08T19:13:31;5.80;53.50
40556;DHT22;26250;45.422;11.100;2023-02-08T19:16:00;5.80;53.50
40556;DHT22;26250;45.422;11.100;2023-02-08T19:18:28;5.80;52.60
40556;DHT22;26250;45.422;11.100;2023-02-08T19:20:55;5.80;52.90
40556;DHT22;26250;45.422;11.100;2023-02-08T19:23:21;5.80;52.80
40556;DHT22;26250;45.422;11.100;2023-02-08T19:25:48;5.80;52.40
40556;DHT22;26250;45.422;11.100;2023-02-08T19:28:15;5.80;52.30
40556;DHT22;26250;45.422;11.100;2023-02-08T19:30:45;5.70;53.00
40556;DHT22;26250;45.422;11.100;2023-02-08T19:33:12;5.70;52.80
40556;DHT22;26250;45.422;11.100;2023-02-08T19:35:39;5.70;53.10
40556;DHT22;26250;45.422;11.100;2023-02-08T19:38:06;5.70;52.80
40556;DHT22;26250;45.422;11.100;2023-02-08T19:40:34;5.60;53.00
40556;DHT22;26250;45.422;11.100;2023-02-08T19:43:01;5.60;53.30
40556;DHT22;26250;45.422;11.100;2023-02-08T19:45:28;5.50;53.90
40556;DHT22;26250;45.422;11.100;2023-02-08T19:47:55;5.50;53.70
40556;DHT22;26250;45.422;11.100;2023-02-08T19:50:24;5.50;53.90
40556;DHT22;26250;45.422;11.100;2023-02-08T19:52:51;5.50;54.10
40556;DHT22;26250;45.422;11.100;2023-02-08T19:55:18;5.50;54.10
40556;DHT22;26250;45.422;11.100;2023-02-08T19:57:45;5.60;53.70
40556;DHT22;26250;45.422;11.100;2023-02-08T20:00:12;5.50;54.20
40556;DHT22;26250;45.422;11.100;2023-02-08T20:02:49;5.50;54.20
40556;DHT22;26250;45.422;11.100;2023-02-08T20:05:15;5.40;54.20
40556;DHT22;26250;45.422;11.100;2023-02-08T20:07:42;5.50;54.20
40556;DHT22;26250;45.422;11.100;2023-02-08T20:10:09;5.50;54.10
40556;DHT22;26250;45.422;11.100;2023-02-08T20:12:36;5.50;54.30
40556;DHT22;26250;45.422;11.100;2023-02-08T20:15:05;5.50;54.00
40556;DHT22;26250;45.422;11.100;2023-02-08T20:17:32;5.50;53.80
40556;DHT22;26250;45.422;11.100;2023-02-08T20:19:58;5.60;53.90
40556;DHT22;26250;45.422;11.100;2023-02-08T20:22:25;5.60;54.00
40556;DHT22;26250;45.422;11.100;2023-02-08T20:24:52;5.60;54.70
40556;DHT22;26250;45.422;11.100;2023-02-08T20:27:19;5.50;53.90
40556;DHT22;26250;45.422;11.100;2023-02-08T20:29:46;5.50;54.30
40556;DHT22;26250;45.422;11.100;2023-02-08T20:32:13;5.40;55.20
40556;DHT22;26250;45.422;11.100;2023-02-08T20:34:39;5.40;54.60
40556;DHT22;26250;45.422;11.100;2023-02-08T20:37:24;5.50;56.80
40556;DHT22;26250;45.422;11.100;2023-02-08T20:39:51;5.60;54.30
40556;DHT22;26250;45.422;11.100;2023-02-08T20:42:20;5.70;53.80
40556;DHT22;26250;45.422;11.100;2023-02-08T20:44:48;5.70;53.60
40556;DHT22;26250;45.422;11.100;2023-02-08T20:47:15;5.60;54.00
40556;DHT22;26250;45.422;11.100;2023-02-08T20:49:45;5.60;54.00
40556;DHT22;26250;45.422;11.100;2023-02-08T20:52:11;5.60;53.90
40556;DHT22;26250;45.422;11.100;2023-02-08T20:54:38;5.60;54.20
40556;DHT22;26250;45.422;11.100;2023-02-08T20:57:05;5.60;54.40
40556;DHT22;26250;45.422;11.100;2023-02-08T20:59:36;5.60;54.60
40556;DHT22;26250;45.422;11.100;2023-02-08T21:02:03;5.50;54.50
40556;DHT22;26250;45.422;11.100;2023-02-08T21:04:33;5.50;54.80
40556;DHT22;26250;45.422;11.100;2023-02-08T21:07:00;5.50;54.80
40556;DHT22;26250;45.422;11.100;2023-02-08T21:09:27;5.60;54.60
40556;DHT22;26250;45.422;11.100;2023-02-08T21:11:54;5.70;54.40
40556;DHT22;26250;45.422;11.100;2023-02-08T21:14:21;5.70;54.50
40556;DHT22;26250;45.422;11.100;2023-02-08T21:16:52;5.80;54.40
40556;DHT22;26250;45.422;11.100;2023-02-08T21:19:19;5.80;54.50
40556;DHT22;26250;45.422;11.100;2023-02-08T21:21:54;5.90;54.10
40556;DHT22;26250;45.422;11.100;2023-02-08T21:24:21;5.80;54.30
40556;DHT22;26250;45.422;11.100;2023-02-08T21:26:53;5.80;54.30
40556;DHT22;26250;45.422;11.100;2023-02-08T21:29:21;5.80;54.90
40556;DHT22;26250;45.422;11.100;2023-02-08T21:31:48;5.80;54.60
40556;DHT22;26250;45.422;11.100;2023-02-08T21:34:19;5.80;54.90
40556;DHT22;26250;45.422;11.100;2023-02-08T21:36:46;5.80;55.10
40556;DHT22;26250;45.422;11.100;2023-02-08T21:39:13;5.80;54.80
40556;DHT22;26250;45.422;11.100;2023-02-08T21:41:40;5.70;55.00
40556;DHT22;26250;45.422;11.100;2023-02-08T21:44:06;5.70;55.10
40556;DHT22;26250;45.422;11.100;2023-02-08T21:46:35;5.70;55.10
40556;DHT22;26250;45.422;11.100;2023-02-08T21:49:02;5.80;54.90
40556;DHT22;26250;45.422;11.100;2023-02-08T21:51:48;5.70;54.90
40556;DHT22;26250;45.422;11.100;2023-02-08T21:54:34;5.80;55.00
40556;DHT22;26250;45.422;11.100;2023-02-08T21:59:38;5.70;55.60
